sensor_id;sensor_type;location;lat;lon;timestamp;P1;durP1;ratioP1;P2;durP2;ratioP2
68140;SDS011;54941;52.220;104.306;2022-08-30T00:02:29;10.43;;;2.60;;
68140;SDS011;54941;52.220;104.306;2022-08-30T00:05:15;7.43;;;2.92;;
68140;SDS011;54941;52.220;104.306;2022-08-30T00:08:00;8.77;;;3.40;;
68140;SDS011;54941;52.220;104.306;2022-08-30T00:10:46;8.30;;;2.17;;
68140;SDS011;54941;52.220;104.306;2022-08-30T00:13:33;5.43;;;2.08;;
68140;SDS011;54941;52.220;104.306;2022-08-30T00:16:19;5.88;;;2.03;;
68140;SDS011;54941;52.220;104.306;2022-08-30T00:19:04;4.65;;;1.88;;
68140;SDS011;54941;52.220;104.306;2022-08-30T00:21:49;3.85;;;1.80;;
68140;SDS011;54941;52.220;104.306;2022-08-30T00:24:34;3.25;;;1.40;;
68140;SDS011;54941;52.220;104.306;2022-08-30T00:27:19;4.70;;;1.00;;
68140;SDS011;54941;52.220;104.306;2022-08-30T00:30:07;3.40;;;1.35;;
68140;SDS011;54941;52.220;104.306;2022-08-30T00:32:53;3.00;;;1.00;;
68140;SDS011;54941;52.220;104.306;2022-08-30T00:35:38;6.85;;;1.42;;
68140;SDS011;54941;52.220;104.306;2022-08-30T00:38:23;3.90;;;1.00;;
68140;SDS011;54941;52.220;104.306;2022-08-30T00:41:08;2.85;;;1.08;;
68140;SDS011;54941;52.220;104.306;2022-08-30T00:43:53;2.20;;;1.23;;
68140;SDS011;54941;52.220;104.306;2022-08-30T00:46:40;4.05;;;1.27;;
68140;SDS011;54941;52.220;104.306;2022-08-30T00:49:25;4.45;;;0.63;;
68140;SDS011;54941;52.220;104.306;2022-08-30T00:52:11;3.63;;;0.90;;
68140;SDS011;54941;52.220;104.306;2022-08-30T00:54:57;5.78;;;1.05;;
68140;SDS011;54941;52.220;104.306;2022-08-30T00:57:42;4.65;;;1.30;;
68140;SDS011;54941;52.220;104.306;2022-08-30T01:00:29;7.82;;;1.60;;
68140;SDS011;54941;52.220;104.306;2022-08-30T01:03:16;8.18;;;2.10;;
68140;SDS011;54941;52.220;104.306;2022-08-30T01:06:02;9.50;;;1.92;;
68140;SDS011;54941;52.220;104.306;2022-08-30T01:08:48;8.55;;;2.00;;
68140;SDS011;54941;52.220;104.306;2022-08-30T01:11:33;7.18;;;2.22;;
68140;SDS011;54941;52.220;104.306;2022-08-30T01:14:19;4.35;;;1.85;;
68140;SDS011;54941;52.220;104.306;2022-08-30T01:17:04;9.20;;;2.13;;
68140;SDS011;54941;52.220;104.306;2022-08-30T01:19:52;7.22;;;1.63;;
68140;SDS011;54941;52.220;104.306;2022-08-30T01:22:39;4.82;;;1.60;;
68140;SDS011;54941;52.220;104.306;2022-08-30T01:25:31;2.75;;;1.17;;
68140;SDS011;54941;52.220;104.306;2022-08-30T01:28:24;1.98;;;0.98;;
68140;SDS011;54941;52.220;104.306;2022-08-30T01:31:11;2.42;;;0.70;;
68140;SDS011;54941;52.220;104.306;2022-08-30T01:33:57;2.70;;;0.70;;
68140;SDS011;54941;52.220;104.306;2022-08-30T01:36:43;3.15;;;0.85;;
68140;SDS011;54941;52.220;104.306;2022-08-30T01:39:29;2.50;;;0.90;;
68140;SDS011;54941;52.220;104.306;2022-08-30T01:42:17;2.40;;;0.93;;
68140;SDS011;54941;52.220;104.306;2022-08-30T01:45:03;4.15;;;1.00;;
68140;SDS011;54941;52.220;104.306;2022-08-30T01:47:48;5.28;;;1.00;;
68140;SDS011;54941;52.220;104.306;2022-08-30T01:50:33;6.57;;;0.90;;
68140;SDS011;54941;52.220;104.306;2022-08-30T01:53:18;5.60;;;1.23;;
68140;SDS011;54941;52.220;104.306;2022-08-30T01:56:03;2.67;;;0.80;;
68140;SDS011;54941;52.220;104.306;2022-08-30T01:58:50;2.55;;;0.57;;
68140;SDS011;54941;52.220;104.306;2022-08-30T02:01:35;1.35;;;0.40;;
68140;SDS011;54941;52.220;104.306;2022-08-30T02:04:21;1.15;;;0.28;;
68140;SDS011;54941;52.220;104.306;2022-08-30T02:07:06;2.28;;;0.70;;
68140;SDS011;54941;52.220;104.306;2022-08-30T02:09:51;3.33;;;1.13;;
68140;SDS011;54941;52.220;104.306;2022-08-30T02:12:37;2.53;;;0.77;;
68140;SDS011;54941;52.220;104.306;2022-08-30T02:15:24;3.80;;;0.77;;
68140;SDS011;54941;52.220;104.306;2022-08-30T02:18:09;2.97;;;0.57;;
68140;SDS011;54941;52.220;104.306;2022-08-30T02:20:54;1.80;;;0.60;;
68140;SDS011;54941;52.220;104.306;2022-08-30T02:23:39;1.92;;;0.80;;
68140;SDS011;54941;52.220;104.306;2022-08-30T02:26:24;4.70;;;0.80;;
68140;SDS011;54941;52.220;104.306;2022-08-30T02:29:10;3.85;;;0.45;;
68140;SDS011;54941;52.220;104.306;2022-08-30T02:31:56;2.60;;;0.70;;
68140;SDS011;54941;52.220;104.306;2022-08-30T02:34:41;1.75;;;0.77;;
68140;SDS011;54941;52.220;104.306;2022-08-30T02:37:26;3.95;;;1.00;;
68140;SDS011;54941;52.220;104.306;2022-08-30T02:40:11;3.88;;;0.80;;
68140;SDS011;54941;52.220;104.306;2022-08-30T02:42:56;1.92;;;0.60;;
68140;SDS011;54941;52.220;104.306;2022-08-30T02:45:41;4.40;;;0.80;;
68140;SDS011;54941;52.220;104.306;2022-08-30T02:48:27;4.93;;;0.85;;
68140;SDS011;54941;52.220;104.306;2022-08-30T02:51:12;2.22;;;0.90;;
68140;SDS011;54941;52.220;104.306;2022-08-30T02:53:58;2.45;;;1.30;;
68140;SDS011;54941;52.220;104.306;2022-08-30T02:56:43;2.10;;;0.70;;
68140;SDS011;54941;52.220;104.306;2022-08-30T02:59:28;2.55;;;1.30;;
68140;SDS011;54941;52.220;104.306;2022-08-30T03:02:14;2.67;;;0.65;;
68140;SDS011;54941;52.220;104.306;2022-08-30T03:05:00;3.03;;;0.82;;
68140;SDS011;54941;52.220;104.306;2022-08-30T03:07:47;2.50;;;0.90;;
68140;SDS011;54941;52.220;104.306;2022-08-30T03:10:32;5.60;;;0.88;;
68140;SDS011;54941;52.220;104.306;2022-08-30T03:13:18;3.53;;;1.17;;
68140;SDS011;54941;52.220;104.306;2022-08-30T03:16:03;2.00;;;1.00;;
68140;SDS011;54941;52.220;104.306;2022-08-30T03:18:48;2.22;;;1.60;;
68140;SDS011;54941;52.220;104.306;2022-08-30T03:21:34;3.63;;;1.20;;
68140;SDS011;54941;52.220;104.306;2022-08-30T03:24:20;2.75;;;0.77;;
68140;SDS011;54941;52.220;104.306;2022-08-30T03:27:05;2.70;;;1.02;;
68140;SDS011;54941;52.220;104.306;2022-08-30T03:29:51;2.47;;;0.90;;
68140;SDS011;54941;52.220;104.306;2022-08-30T03:32:35;1.88;;;0.60;;
68140;SDS011;54941;52.220;104.306;2022-08-30T03:35:20;2.97;;;1.20;;
68140;SDS011;54941;52.220;104.306;2022-08-30T03:38:07;1.75;;;0.68;;
68140;SDS011;54941;52.220;104.306;2022-08-30T03:40:52;2.72;;;1.00;;
68140;SDS011;54941;52.220;104.306;2022-08-30T03:43:37;3.55;;;1.30;;
68140;SDS011;54941;52.220;104.306;2022-08-30T03:46:22;2.58;;;1.00;;
68140;SDS011;54941;52.220;104.306;2022-08-30T03:49:07;2.47;;;0.65;;
68140;SDS011;54941;52.220;104.306;2022-08-30T03:51:52;4.18;;;2.42;;
68140;SDS011;54941;52.220;104.306;2022-08-30T03:54:39;4.10;;;2.10;;
68140;SDS011;54941;52.220;104.306;2022-08-30T03:57:25;3.20;;;1.40;;
68140;SDS011;54941;52.220;104.306;2022-08-30T04:00:10;4.88;;;1.60;;
68140;SDS011;54941;52.220;104.306;2022-08-30T04:02:56;3.95;;;1.98;;
68140;SDS011;54941;52.220;104.306;2022-08-30T04:05:41;10.00;;;4.43;;
68140;SDS011;54941;52.220;104.306;2022-08-30T04:08:26;4.05;;;1.90;;
68140;SDS011;54941;52.220;104.306;2022-08-30T04:11:13;2.55;;;1.73;;
68140;SDS011;54941;52.220;104.306;2022-08-30T04:13:58;1.67;;;0.85;;
68140;SDS011;54941;52.220;104.306;2022-08-30T04:16:43;1.70;;;0.85;;
68140;SDS011;54941;52.220;104.306;2022-08-30T04:19:28;3.33;;;1.00;;
68140;SDS011;54941;52.220;104.306;2022-08-30T04:22:13;3.72;;;1.23;;
68140;SDS011;54941;52.220;104.306;2022-08-30T04:24:58;2.72;;;1.10;;
68140;SDS011;54941;52.220;104.306;2022-08-30T04:27:45;4.32;;;1.58;;
68140;SDS011;54941;52.220;104.306;2022-08-30T04:30:30;2.08;;;0.80;;
68140;SDS011;54941;52.220;104.306;2022-08-30T04:33:15;3.80;;;1.48;;
68140;SDS011;54941;52.220;104.306;2022-08-30T04:36:01;3.63;;;0.90;;
68140;SDS011;54941;52.220;104.306;2022-08-30T04:38:48;3.50;;;1.00;;
68140;SDS011;54941;52.220;104.306;2022-08-30T04:41:34;2.65;;;0.90;;
68140;SDS011;54941;52.220;104.306;2022-08-30T04:44:22;2.72;;;0.90;;
68140;SDS011;54941;52.220;104.306;2022-08-30T04:47:07;5.25;;;1.48;;
68140;SDS011;54941;52.220;104.306;2022-08-30T04:49:52;4.10;;;0.80;;
68140;SDS011;54941;52.220;104.306;2022-08-30T04:52:37;4.97;;;1.13;;
68140;SDS011;54941;52.220;104.306;2022-08-30T04:55:22;7.55;;;1.38;;
68140;SDS011;54941;52.220;104.306;2022-08-30T04:58:08;7.28;;;1.55;;
68140;SDS011;54941;52.220;104.306;2022-08-30T05:00:55;7.00;;;1.55;;
68140;SDS011;54941;52.220;104.306;2022-08-30T05:03:40;6.45;;;1.20;;
68140;SDS011;54941;52.220;104.306;2022-08-30T05:06:26;6.63;;;1.38;;
68140;SDS011;54941;52.220;104.306;2022-08-30T05:09:12;7.28;;;1.42;;
68140;SDS011;54941;52.220;104.306;2022-08-30T05:11:57;5.13;;;1.70;;
68140;SDS011;54941;52.220;104.306;2022-08-30T05:14:42;9.63;;;1.80;;
68140;SDS011;54941;52.220;104.306;2022-08-30T05:17:28;11.15;;;1.90;;
68140;SDS011;54941;52.220;104.306;2022-08-30T05:20:14;6.60;;;1.45;;
68140;SDS011;54941;52.220;104.306;2022-08-30T05:22:59;5.57;;;1.45;;
68140;SDS011;54941;52.220;104.306;2022-08-30T05:25:44;6.35;;;1.50;;
68140;SDS011;54941;52.220;104.306;2022-08-30T05:28:29;9.75;;;1.40;;
68140;SDS011;54941;52.220;104.306;2022-08-30T05:31:15;2.83;;;1.17;;
68140;SDS011;54941;52.220;104.306;2022-08-30T05:34:03;4.70;;;1.48;;
68140;SDS011;54941;52.220;104.306;2022-08-30T05:36:48;2.70;;;0.80;;
68140;SDS011;54941;52.220;104.306;2022-08-30T05:39:33;6.68;;;1.23;;
68140;SDS011;54941;52.220;104.306;2022-08-30T05:42:18;3.53;;;1.23;;
68140;SDS011;54941;52.220;104.306;2022-08-30T05:45:03;3.08;;;0.80;;
68140;SDS011;54941;52.220;104.306;2022-08-30T05:47:49;2.90;;;1.55;;
68140;SDS011;54941;52.220;104.306;2022-08-30T05:50:35;7.97;;;1.02;;
68140;SDS011;54941;52.220;104.306;2022-08-30T05:53:21;4.63;;;0.93;;
68140;SDS011;54941;52.220;104.306;2022-08-30T05:56:06;2.67;;;1.10;;
68140;SDS011;54941;52.220;104.306;2022-08-30T06:01:38;3.25;;;1.13;;
68140;SDS011;54941;52.220;104.306;2022-08-30T06:04:25;2.88;;;1.20;;
68140;SDS011;54941;52.220;104.306;2022-08-30T06:07:11;2.10;;;0.52;;
68140;SDS011;54941;52.220;104.306;2022-08-30T06:09:56;3.30;;;0.80;;
68140;SDS011;54941;52.220;104.306;2022-08-30T06:12:41;6.63;;;1.70;;
68140;SDS011;54941;52.220;104.306;2022-08-30T06:15:26;6.78;;;1.75;;
68140;SDS011;54941;52.220;104.306;2022-08-30T06:18:12;7.22;;;1.77;;
68140;SDS011;54941;52.220;104.306;2022-08-30T06:20:57;8.73;;;1.48;;
68140;SDS011;54941;52.220;104.306;2022-08-30T06:23:43;6.70;;;1.27;;
68140;SDS011;54941;52.220;104.306;2022-08-30T06:26:29;8.15;;;1.30;;
68140;SDS011;54941;52.220;104.306;2022-08-30T06:29:15;3.35;;;1.20;;
68140;SDS011;54941;52.220;104.306;2022-08-30T06:32:02;3.83;;;0.93;;
68140;SDS011;54941;52.220;104.306;2022-08-30T06:34:47;3.05;;;0.80;;
68140;SDS011;54941;52.220;104.306;2022-08-30T06:37:32;2.90;;;1.17;;
68140;SDS011;54941;52.220;104.306;2022-08-30T06:40:19;4.20;;;1.10;;
68140;SDS011;54941;52.220;104.306;2022-08-30T06:43:04;3.10;;;1.27;;
68140;SDS011;54941;52.220;104.306;2022-08-30T06:45:49;3.97;;;1.00;;
68140;SDS011;54941;52.220;104.306;2022-08-30T06:48:34;3.40;;;1.10;;
68140;SDS011;54941;52.220;104.306;2022-08-30T06:51:19;4.68;;;1.35;;
68140;SDS011;54941;52.220;104.306;2022-08-30T06:54:05;5.88;;;1.42;;
68140;SDS011;54941;52.220;104.306;2022-08-30T06:56:52;4.18;;;1.40;;
68140;SDS011;54941;52.220;104.306;2022-08-30T06:59:38;5.78;;;2.45;;
68140;SDS011;54941;52.220;104.306;2022-08-30T07:02:23;2.40;;;1.10;;
68140;SDS011;54941;52.220;104.306;2022-08-30T07:05:09;3.55;;;0.90;;
68140;SDS011;54941;52.220;104.306;2022-08-30T07:07:54;3.53;;;0.90;;
68140;SDS011;54941;52.220;104.306;2022-08-30T07:10:39;3.30;;;1.00;;
68140;SDS011;54941;52.220;104.306;2022-08-30T07:13:26;4.20;;;1.52;;
68140;SDS011;54941;52.220;104.306;2022-08-30T07:16:11;4.88;;;1.63;;
68140;SDS011;54941;52.220;104.306;2022-08-30T07:18:57;3.65;;;1.30;;
68140;SDS011;54941;52.220;104.306;2022-08-30T07:21:42;4.00;;;1.40;;
68140;SDS011;54941;52.220;104.306;2022-08-30T07:24:27;5.05;;;1.33;;
68140;SDS011;54941;52.220;104.306;2022-08-30T07:27:13;5.82;;;1.70;;
68140;SDS011;54941;52.220;104.306;2022-08-30T07:30:00;9.38;;;1.95;;
68140;SDS011;54941;52.220;104.306;2022-08-30T07:32:45;3.90;;;1.73;;
68140;SDS011;54941;52.220;104.306;2022-08-30T07:35:30;5.40;;;1.52;;
68140;SDS011;54941;52.220;104.306;2022-08-30T07:38:15;5.10;;;1.50;;
68140;SDS011;54941;52.220;104.306;2022-08-30T07:41:00;5.40;;;1.60;;
68140;SDS011;54941;52.220;104.306;2022-08-30T07:43:45;4.85;;;1.13;;
68140;SDS011;54941;52.220;104.306;2022-08-30T07:46:32;5.25;;;1.58;;
68140;SDS011;54941;52.220;104.306;2022-08-30T07:49:17;5.78;;;1.48;;
68140;SDS011;54941;52.220;104.306;2022-08-30T07:52:02;4.07;;;1.50;;
68140;SDS011;54941;52.220;104.306;2022-08-30T07:54:47;6.65;;;1.80;;
68140;SDS011;54941;52.220;104.306;2022-08-30T07:57:32;6.30;;;1.75;;
68140;SDS011;54941;52.220;104.306;2022-08-30T08:00:17;4.68;;;2.13;;
68140;SDS011;54941;52.220;104.306;2022-08-30T08:03:05;5.30;;;1.63;;
68140;SDS011;54941;52.220;104.306;2022-08-30T08:05:51;8.90;;;2.10;;
68140;SDS011;54941;52.220;104.306;2022-08-30T08:08:36;8.73;;;2.08;;
68140;SDS011;54941;52.220;104.306;2022-08-30T08:11:23;6.10;;;2.10;;
68140;SDS011;54941;52.220;104.306;2022-08-30T08:14:09;5.93;;;1.73;;
68140;SDS011;54941;52.220;104.306;2022-08-30T08:16:54;8.35;;;2.50;;
68140;SDS011;54941;52.220;104.306;2022-08-30T08:19:41;4.57;;;1.90;;
68140;SDS011;54941;52.220;104.306;2022-08-30T08:22:26;7.60;;;1.77;;
68140;SDS011;54941;52.220;104.306;2022-08-30T08:25:11;6.68;;;2.65;;
68140;SDS011;54941;52.220;104.306;2022-08-30T08:27:56;10.10;;;2.58;;
68140;SDS011;54941;52.220;104.306;2022-08-30T08:30:41;14.63;;;4.78;;
68140;SDS011;54941;52.220;104.306;2022-08-30T08:33:26;7.80;;;3.08;;
68140;SDS011;54941;52.220;104.306;2022-08-30T08:36:12;6.72;;;2.78;;
68140;SDS011;54941;52.220;104.306;2022-08-30T08:38:58;7.35;;;2.10;;
68140;SDS011;54941;52.220;104.306;2022-08-30T08:41:47;5.25;;;2.00;;
68140;SDS011;54941;52.220;104.306;2022-08-30T08:44:42;9.73;;;2.50;;
68140;SDS011;54941;52.220;104.306;2022-08-30T08:47:35;7.88;;;2.10;;
68140;SDS011;54941;52.220;104.306;2022-08-30T08:50:22;9.68;;;2.60;;
68140;SDS011;54941;52.220;104.306;2022-08-30T08:53:11;8.05;;;2.47;;
68140;SDS011;54941;52.220;104.306;2022-08-30T08:56:04;7.90;;;2.60;;
68140;SDS011;54941;52.220;104.306;2022-08-30T08:58:53;10.23;;;3.70;;
68140;SDS011;54941;52.220;104.306;2022-08-30T09:01:40;7.35;;;2.58;;
68140;SDS011;54941;52.220;104.306;2022-08-30T09:04:26;7.20;;;2.63;;
68140;SDS011;54941;52.220;104.306;2022-08-30T09:07:18;6.05;;;3.10;;
68140;SDS011;54941;52.220;104.306;2022-08-30T09:10:08;6.22;;;3.08;;
68140;SDS011;54941;52.220;104.306;2022-08-30T09:12:54;6.05;;;2.40;;
68140;SDS011;54941;52.220;104.306;2022-08-30T09:15:39;5.53;;;3.25;;
68140;SDS011;54941;52.220;104.306;2022-08-30T09:18:39;5.60;;;3.20;;
68140;SDS011;54941;52.220;104.306;2022-08-30T09:21:25;5.68;;;2.45;;
68140;SDS011;54941;52.220;104.306;2022-08-30T09:24:12;5.22;;;2.10;;
68140;SDS011;54941;52.220;104.306;2022-08-30T09:27:02;3.80;;;1.70;;
68140;SDS011;54941;52.220;104.306;2022-08-30T09:30:02;4.82;;;1.90;;
68140;SDS011;54941;52.220;104.306;2022-08-30T09:32:51;3.63;;;1.75;;
68140;SDS011;54941;52.220;104.306;2022-08-30T09:35:40;4.28;;;1.50;;
68140;SDS011;54941;52.220;104.306;2022-08-30T09:38:27;5.07;;;2.20;;
68140;SDS011;54941;52.220;104.306;2022-08-30T09:41:27;4.50;;;1.60;;
68140;SDS011;54941;52.220;104.306;2022-08-30T09:44:21;6.57;;;2.00;;
68140;SDS011;54941;52.220;104.306;2022-08-30T09:47:16;4.55;;;2.33;;
68140;SDS011;54941;52.220;104.306;2022-08-30T09:50:04;3.70;;;1.65;;
68140;SDS011;54941;52.220;104.306;2022-08-30T09:52:57;3.78;;;1.75;;
68140;SDS011;54941;52.220;104.306;2022-08-30T09:55:50;5.22;;;3.28;;
68140;SDS011;54941;52.220;104.306;2022-08-30T09:58:57;5.07;;;2.20;;
68140;SDS011;54941;52.220;104.306;2022-08-30T10:02:17;4.85;;;1.70;;
68140;SDS011;54941;52.220;104.306;2022-08-30T10:05:18;5.97;;;2.20;;
68140;SDS011;54941;52.220;104.306;2022-08-30T10:08:11;4.63;;;1.55;;
68140;SDS011;54941;52.220;104.306;2022-08-30T10:11:03;4.22;;;1.70;;
68140;SDS011;54941;52.220;104.306;2022-08-30T10:13:54;4.55;;;1.40;;
68140;SDS011;54941;52.220;104.306;2022-08-30T10:16:59;7.70;;;1.77;;
68140;SDS011;54941;52.220;104.306;2022-08-30T10:19:56;4.60;;;1.73;;
68140;SDS011;54941;52.220;104.306;2022-08-30T10:22:49;4.97;;;2.05;;
68140;SDS011;54941;52.220;104.306;2022-08-30T10:25:41;8.70;;;2.33;;
68140;SDS011;54941;52.220;104.306;2022-08-30T10:28:29;5.90;;;2.55;;
68140;SDS011;54941;52.220;104.306;2022-08-30T10:31:23;7.65;;;3.30;;
68140;SDS011;54941;52.220;104.306;2022-08-30T10:34:13;6.57;;;2.20;;
68140;SDS011;54941;52.220;104.306;2022-08-30T10:37:04;4.47;;;2.28;;
68140;SDS011;54941;52.220;104.306;2022-08-30T10:39:53;3.83;;;1.88;;
68140;SDS011;54941;52.220;104.306;2022-08-30T10:42:44;4.43;;;1.80;;
68140;SDS011;54941;52.220;104.306;2022-08-30T10:45:29;7.82;;;2.10;;
68140;SDS011;54941;52.220;104.306;2022-08-30T10:48:22;6.55;;;2.20;;
68140;SDS011;54941;52.220;104.306;2022-08-30T10:51:11;5.47;;;2.25;;
68140;SDS011;54941;52.220;104.306;2022-08-30T10:54:07;4.70;;;1.60;;
68140;SDS011;54941;52.220;104.306;2022-08-30T10:57:00;4.45;;;1.67;;
68140;SDS011;54941;52.220;104.306;2022-08-30T10:59:50;4.20;;;1.70;;
68140;SDS011;54941;52.220;104.306;2022-08-30T11:06:05;4.80;;;1.70;;
68140;SDS011;54941;52.220;104.306;2022-08-30T11:08:59;4.00;;;2.20;;
68140;SDS011;54941;52.220;104.306;2022-08-30T11:12:00;5.47;;;2.00;;
68140;SDS011;54941;52.220;104.306;2022-08-30T11:15:00;5.43;;;2.20;;
68140;SDS011;54941;52.220;104.306;2022-08-30T11:17:58;6.00;;;2.50;;
68140;SDS011;54941;52.220;104.306;2022-08-30T11:20:46;7.28;;;3.13;;
68140;SDS011;54941;52.220;104.306;2022-08-30T11:23:33;6.13;;;2.95;;
68140;SDS011;54941;52.220;104.306;2022-08-30T11:29:43;7.05;;;2.72;;
68140;SDS011;54941;52.220;104.306;2022-08-30T11:35:42;8.35;;;3.50;;
68140;SDS011;54941;52.220;104.306;2022-08-30T11:41:43;7.28;;;2.65;;
68140;SDS011;54941;52.220;104.306;2022-08-30T11:44:31;8.27;;;3.38;;
68140;SDS011;54941;52.220;104.306;2022-08-30T11:47:39;6.53;;;2.85;;
68140;SDS011;54941;52.220;104.306;2022-08-30T11:50:28;9.80;;;7.22;;
68140;SDS011;54941;52.220;104.306;2022-08-30T11:53:19;9.13;;;4.88;;
68140;SDS011;54941;52.220;104.306;2022-08-30T11:56:12;7.35;;;3.60;;
68140;SDS011;54941;52.220;104.306;2022-08-30T11:59:04;9.55;;;5.80;;
68140;SDS011;54941;52.220;104.306;2022-08-30T12:02:02;14.00;;;9.63;;
68140;SDS011;54941;52.220;104.306;2022-08-30T12:04:49;20.08;;;13.10;;
68140;SDS011;54941;52.220;104.306;2022-08-30T12:10:43;18.38;;;12.57;;
68140;SDS011;54941;52.220;104.306;2022-08-30T12:16:38;6.80;;;3.55;;
68140;SDS011;54941;52.220;104.306;2022-08-30T12:19:26;9.93;;;3.08;;
68140;SDS011;54941;52.220;104.306;2022-08-30T12:22:15;4.85;;;2.35;;
68140;SDS011;54941;52.220;104.306;2022-08-30T12:25:02;6.63;;;3.35;;
68140;SDS011;54941;52.220;104.306;2022-08-30T12:28:07;8.85;;;3.78;;
68140;SDS011;54941;52.220;104.306;2022-08-30T12:33:41;7.90;;;2.80;;
68140;SDS011;54941;52.220;104.306;2022-08-30T12:36:32;7.20;;;3.13;;
68140;SDS011;54941;52.220;104.306;2022-08-30T12:39:20;6.05;;;2.78;;
68140;SDS011;54941;52.220;104.306;2022-08-30T12:42:10;7.55;;;3.60;;
68140;SDS011;54941;52.220;104.306;2022-08-30T12:45:01;7.03;;;3.70;;
68140;SDS011;54941;52.220;104.306;2022-08-30T12:47:50;7.85;;;3.88;;
68140;SDS011;54941;52.220;104.306;2022-08-30T12:50:42;6.47;;;3.97;;
68140;SDS011;54941;52.220;104.306;2022-08-30T12:53:29;8.63;;;4.30;;
68140;SDS011;54941;52.220;104.306;2022-08-30T12:56:17;9.10;;;4.38;;
68140;SDS011;54941;52.220;104.306;2022-08-30T12:59:04;7.65;;;4.80;;
68140;SDS011;54941;52.220;104.306;2022-08-30T13:01:49;7.63;;;4.22;;
68140;SDS011;54941;52.220;104.306;2022-08-30T13:04:34;10.30;;;4.07;;
68140;SDS011;54941;52.220;104.306;2022-08-30T13:07:23;7.82;;;4.60;;
68140;SDS011;54941;52.220;104.306;2022-08-30T13:10:14;8.25;;;4.50;;
68140;SDS011;54941;52.220;104.306;2022-08-30T13:13:03;7.13;;;4.28;;
68140;SDS011;54941;52.220;104.306;2022-08-30T13:15:49;8.07;;;4.40;;
68140;SDS011;54941;52.220;104.306;2022-08-30T13:18:34;10.13;;;5.00;;
68140;SDS011;54941;52.220;104.306;2022-08-30T13:21:21;10.70;;;5.50;;
68140;SDS011;54941;52.220;104.306;2022-08-30T13:24:08;8.98;;;4.78;;
68140;SDS011;54941;52.220;104.306;2022-08-30T13:26:53;11.38;;;6.40;;
68140;SDS011;54941;52.220;104.306;2022-08-30T13:29:42;10.25;;;5.35;;
68140;SDS011;54941;52.220;104.306;2022-08-30T13:32:28;10.57;;;4.75;;
68140;SDS011;54941;52.220;104.306;2022-08-30T13:35:13;11.20;;;6.10;;
68140;SDS011;54941;52.220;104.306;2022-08-30T13:37:58;8.73;;;5.10;;
68140;SDS011;54941;52.220;104.306;2022-08-30T13:40:45;9.25;;;5.40;;
68140;SDS011;54941;52.220;104.306;2022-08-30T13:43:30;9.00;;;4.68;;
68140;SDS011;54941;52.220;104.306;2022-08-30T13:46:17;7.15;;;5.05;;
68140;SDS011;54941;52.220;104.306;2022-08-30T13:49:04;10.65;;;6.35;;
68140;SDS011;54941;52.220;104.306;2022-08-30T13:51:50;13.95;;;7.10;;
68140;SDS011;54941;52.220;104.306;2022-08-30T13:54:35;16.67;;;9.43;;
68140;SDS011;54941;52.220;104.306;2022-08-30T13:57:21;15.18;;;8.52;;
68140;SDS011;54941;52.220;104.306;2022-08-30T14:00:09;19.13;;;10.95;;
68140;SDS011;54941;52.220;104.306;2022-08-30T14:02:58;17.75;;;10.10;;
68140;SDS011;54941;52.220;104.306;2022-08-30T14:05:43;18.05;;;10.00;;
68140;SDS011;54941;52.220;104.306;2022-08-30T14:08:29;21.38;;;11.50;;
68140;SDS011;54941;52.220;104.306;2022-08-30T14:11:15;18.67;;;10.82;;
68140;SDS011;54941;52.220;104.306;2022-08-30T14:14:02;21.98;;;11.88;;
68140;SDS011;54941;52.220;104.306;2022-08-30T14:16:48;20.88;;;11.25;;
68140;SDS011;54941;52.220;104.306;2022-08-30T14:19:37;21.55;;;12.23;;
68140;SDS011;54941;52.220;104.306;2022-08-30T14:22:22;22.42;;;13.10;;
68140;SDS011;54941;52.220;104.306;2022-08-30T14:25:08;25.45;;;14.77;;
68140;SDS011;54941;52.220;104.306;2022-08-30T14:27:53;18.60;;;12.32;;
68140;SDS011;54941;52.220;104.306;2022-08-30T14:30:38;19.33;;;11.13;;
68140;SDS011;54941;52.220;104.306;2022-08-30T14:33:23;25.02;;;11.68;;
68140;SDS011;54941;52.220;104.306;2022-08-30T14:36:10;21.15;;;13.27;;
68140;SDS011;54941;52.220;104.306;2022-08-30T14:38:55;20.75;;;11.05;;
68140;SDS011;54941;52.220;104.306;2022-08-30T14:41:41;21.05;;;10.20;;
68140;SDS011;54941;52.220;104.306;2022-08-30T14:44:27;19.83;;;11.52;;
68140;SDS011;54941;52.220;104.306;2022-08-30T14:47:12;21.17;;;12.02;;
68140;SDS011;54941;52.220;104.306;2022-08-30T14:49:57;18.23;;;10.07;;
68140;SDS011;54941;52.220;104.306;2022-08-30T14:52:44;19.02;;;11.25;;
68140;SDS011;54941;52.220;104.306;2022-08-30T14:55:29;21.85;;;11.70;;
68140;SDS011;54941;52.220;104.306;2022-08-30T14:58:14;16.83;;;10.23;;
68140;SDS011;54941;52.220;104.306;2022-08-30T15:00:59;16.50;;;10.15;;
68140;SDS011;54941;52.220;104.306;2022-08-30T15:03:44;19.75;;;11.73;;
68140;SDS011;54941;52.220;104.306;2022-08-30T15:06:29;16.67;;;10.15;;
68140;SDS011;54941;52.220;104.306;2022-08-30T15:09:16;15.02;;;9.10;;
68140;SDS011;54941;52.220;104.306;2022-08-30T15:12:04;14.73;;;7.53;;
68140;SDS011;54941;52.220;104.306;2022-08-30T15:14:49;13.82;;;7.20;;
68140;SDS011;54941;52.220;104.306;2022-08-30T15:17:34;12.98;;;7.50;;
68140;SDS011;54941;52.220;104.306;2022-08-30T15:20:19;14.73;;;7.05;;
68140;SDS011;54941;52.220;104.306;2022-08-30T15:23:04;19.23;;;6.80;;
68140;SDS011;54941;52.220;104.306;2022-08-30T15:25:50;11.52;;;6.20;;
68140;SDS011;54941;52.220;104.306;2022-08-30T15:28:35;8.65;;;5.10;;
68140;SDS011;54941;52.220;104.306;2022-08-30T15:31:21;20.88;;;5.82;;
68140;SDS011;54941;52.220;104.306;2022-08-30T15:34:08;9.27;;;4.45;;
68140;SDS011;54941;52.220;104.306;2022-08-30T15:36:56;7.57;;;5.38;;
68140;SDS011;54941;52.220;104.306;2022-08-30T15:39:41;13.80;;;5.88;;
68140;SDS011;54941;52.220;104.306;2022-08-30T15:42:27;10.50;;;5.68;;
68140;SDS011;54941;52.220;104.306;2022-08-30T15:45:13;6.47;;;3.92;;
68140;SDS011;54941;52.220;104.306;2022-08-30T15:48:01;7.65;;;4.63;;
68140;SDS011;54941;52.220;104.306;2022-08-30T15:50:47;7.68;;;4.30;;
68140;SDS011;54941;52.220;104.306;2022-08-30T15:53:40;6.63;;;3.67;;
68140;SDS011;54941;52.220;104.306;2022-08-30T15:56:25;5.75;;;2.88;;
68140;SDS011;54941;52.220;104.306;2022-08-30T15:59:11;5.10;;;2.72;;
68140;SDS011;54941;52.220;104.306;2022-08-30T16:01:57;4.80;;;2.50;;
68140;SDS011;54941;52.220;104.306;2022-08-30T16:04:41;6.13;;;3.10;;
68140;SDS011;54941;52.220;104.306;2022-08-30T16:07:26;6.28;;;3.40;;
68140;SDS011;54941;52.220;104.306;2022-08-30T16:10:11;5.63;;;2.35;;
68140;SDS011;54941;52.220;104.306;2022-08-30T16:12:57;6.93;;;3.35;;
68140;SDS011;54941;52.220;104.306;2022-08-30T16:15:43;7.40;;;4.00;;
68140;SDS011;54941;52.220;104.306;2022-08-30T16:18:29;13.52;;;4.80;;
68140;SDS011;54941;52.220;104.306;2022-08-30T16:21:15;10.70;;;5.18;;
68140;SDS011;54941;52.220;104.306;2022-08-30T16:24:05;10.43;;;5.40;;
68140;SDS011;54941;52.220;104.306;2022-08-30T16:26:51;9.40;;;5.43;;
68140;SDS011;54941;52.220;104.306;2022-08-30T16:29:35;9.75;;;5.45;;
68140;SDS011;54941;52.220;104.306;2022-08-30T16:32:25;7.00;;;5.00;;
68140;SDS011;54941;52.220;104.306;2022-08-30T16:35:10;7.85;;;4.45;;
68140;SDS011;54941;52.220;104.306;2022-08-30T16:37:55;9.38;;;4.43;;
68140;SDS011;54941;52.220;104.306;2022-08-30T16:40:40;7.22;;;3.65;;